Time;durP1;ratioP1;P1;durP2;ratioP2;P2;SDS_P1;SDS_P2;PMS_P1;PMS_P2;Temp;Humidity;BMP_temperature;BMP_pressure;BME280_temperature;BME280_humidity;BME280_pressure;Samples;Min_cycle;Max_cycle;Signal;HPM_P1;HPM_P2
2022/11/25 00:01:23;;;;;;;55.95;7.28;;;;;;;;;;5011957;28;20029;-54
2022/11/25 00:03:51;;;;;;;66.18;7.35;;;;;;;;;;5011858;28;20030;-52
2022/11/25 00:06:19;;;;;;;48.40;6.40;;;;;;;;;;5012128;28;20069;-48
2022/11/25 00:08:48;;;;;;;61.53;6.78;;;;;;;;;;5011493;28;20050;-48
2022/11/25 00:11:15;;;;;;;76.85;8.18;;;;;;;;;;5011296;28;20124;-55
2022/11/25 00:13:43;;;;;;;70.03;7.05;;;;;;;;;;5011094;28;20034;-52
2022/11/25 00:16:11;;;;;;;63.13;7.57;;;;;;;;;;5011831;28;20439;-54
2022/11/25 00:18:38;;;;;;;48.33;7.00;;;;;;;;;;5011699;28;20030;-55
2022/11/25 00:21:10;;;;;;;58.50;6.88;;;;;;;;;;5011958;28;20022;-48
2022/11/25 00:23:37;;;;;;;65.87;7.03;;;;;;;;;;5011121;28;20087;-53
2022/11/25 00:26:07;;;;;;;55.33;6.45;;;;;;;;;;5011749;28;20025;-51
2022/11/25 00:28:34;;;;;;;61.22;8.02;;;;;;;;;;5012983;28;20383;-56
2022/11/25 00:31:24;;;;;;;49.42;6.22;;;;;;;;;;5015092;28;20029;-54
2022/11/25 00:33:51;;;;;;;145.15;15.30;;;;;;;;;;5006955;28;20034;-55
2022/11/25 00:36:27;;;;;;;155.50;17.48;;;;;;;;;;5014517;28;20026;-52
2022/11/25 00:39:01;;;;;;;72.25;7.80;;;;;;;;;;5013013;28;20034;-55
2022/11/25 00:47:01;;;;;;;36.63;5.70;;;;;;;;;;5014052;28;20044;-57
2022/11/25 00:49:28;;;;;;;43.05;5.22;;;;;;;;;;5013335;28;20510;-57
2022/11/25 00:51:55;;;;;;;46.78;6.07;;;;;;;;;;5014825;28;20034;-53
2022/11/25 00:54:22;;;;;;;45.33;7.13;;;;;;;;;;5015079;28;20490;-58
2022/11/25 00:56:50;;;;;;;57.13;6.70;;;;;;;;;;5014548;28;20029;-53
2022/11/25 00:59:17;;;;;;;35.67;5.35;;;;;;;;;;4998578;28;20092;-57
2022/11/25 01:01:44;;;;;;;39.85;5.30;;;;;;;;;;5014951;28;20488;-54
2022/11/25 01:04:11;;;;;;;38.65;5.68;;;;;;;;;;5014672;28;20030;-56
2022/11/25 01:06:38;;;;;;;36.95;5.10;;;;;;;;;;5014530;28;20029;-58
2022/11/25 01:09:06;;;;;;;29.90;4.90;;;;;;;;;;5011007;28;20042;-56
2022/11/25 01:11:33;;;;;;;33.20;4.70;;;;;;;;;;5002233;28;20034;-56
2022/11/25 01:14:00;;;;;;;35.92;4.32;;;;;;;;;;5004649;28;20088;-56
2022/11/25 01:16:27;;;;;;;34.42;4.40;;;;;;;;;;5005060;28;20032;-54
2022/11/25 01:18:54;;;;;;;34.13;3.88;;;;;;;;;;5001999;28;20050;-59
2022/11/25 01:21:23;;;;;;;33.20;4.60;;;;;;;;;;5005324;28;20080;-58
2022/11/25 01:23:50;;;;;;;27.98;4.28;;;;;;;;;;5014651;28;20034;-56
2022/11/25 01:26:19;;;;;;;32.95;4.78;;;;;;;;;;5013640;28;20109;-55
2022/11/25 01:28:46;;;;;;;39.28;5.90;;;;;;;;;;5014092;28;20030;-56
2022/11/25 01:31:15;;;;;;;48.78;6.47;;;;;;;;;;5014492;28;20026;-52
2022/11/25 01:33:42;;;;;;;43.33;5.75;;;;;;;;;;5013615;28;20018;-56
2022/11/25 01:36:18;;;;;;;41.33;5.95;;;;;;;;;;5014485;28;20455;-58
2022/11/25 01:38:46;;;;;;;37.03;6.18;;;;;;;;;;5013668;28;20042;-58
2022/11/25 01:41:13;;;;;;;36.67;4.72;;;;;;;;;;5013668;28;20101;-58
2022/11/25 01:43:41;;;;;;;33.47;4.93;;;;;;;;;;5014049;28;20088;-60
2022/11/25 01:46:08;;;;;;;39.40;4.85;;;;;;;;;;5013538;28;20028;-59
2022/11/25 01:48:38;;;;;;;33.25;4.75;;;;;;;;;;5013499;28;20488;-60
2022/11/25 01:51:05;;;;;;;43.63;4.38;;;;;;;;;;5012541;28;20570;-60
2022/11/25 01:53:33;;;;;;;49.13;5.78;;;;;;;;;;5013352;28;20049;-59
2022/11/25 01:56:02;;;;;;;63.55;7.18;;;;;;;;;;5013260;28;20041;-60
2022/11/25 01:58:30;;;;;;;41.30;5.70;;;;;;;;;;5013133;28;20065;-58
2022/11/25 02:00:57;;;;;;;45.88;6.13;;;;;;;;;;5013299;28;20041;-59
2022/11/25 02:03:26;;;;;;;40.83;6.07;;;;;;;;;;5012624;28;20022;-59
2022/11/25 02:05:59;;;;;;;39.05;5.93;;;;;;;;;;5011083;28;20038;-60
2022/11/25 02:08:26;;;;;;;40.72;5.93;;;;;;;;;;5013253;28;20038;-58
2022/11/25 02:10:55;;;;;;;37.38;5.28;;;;;;;;;;5013260;28;20108;-58
2022/11/25 02:13:23;;;;;;;37.53;5.13;;;;;;;;;;5012851;28;20384;-60
2022/11/25 02:15:50;;;;;;;33.63;4.78;;;;;;;;;;5012871;28;20033;-60
2022/11/25 02:18:17;;;;;;;33.67;4.40;;;;;;;;;;5003870;28;20042;-57
2022/11/25 02:20:44;;;;;;;41.50;4.72;;;;;;;;;;5000073;28;20038;-53
2022/11/25 02:23:24;;;;;;;47.53;6.20;;;;;;;;;;4997968;28;20637;-53
2022/11/25 02:25:51;;;;;;;32.90;5.35;;;;;;;;;;5012742;28;20525;-58
2022/11/25 02:28:19;;;;;;;40.90;5.85;;;;;;;;;;5013478;28;20092;-54
2022/11/25 02:30:47;;;;;;;44.20;5.45;;;;;;;;;;5013263;28;20033;-55
2022/11/25 02:33:14;;;;;;;36.78;5.90;;;;;;;;;;5013312;28;20391;-56
2022/11/25 02:35:48;;;;;;;31.45;5.60;;;;;;;;;;5013063;28;20676;-57
2022/11/25 02:38:16;;;;;;;32.13;5.10;;;;;;;;;;5011137;28;20070;-54
2022/11/25 02:40:49;;;;;;;35.60;5.20;;;;;;;;;;5013507;28;20025;-57
2022/11/25 02:43:16;;;;;;;32.13;5.15;;;;;;;;;;5013554;28;20026;-56
2022/11/25 02:45:49;;;;;;;31.90;5.13;;;;;;;;;;5013564;28;20030;-53
2022/11/25 02:48:16;;;;;;;29.58;5.10;;;;;;;;;;5013211;28;20500;-57
2022/11/25 02:50:43;;;;;;;25.80;4.75;;;;;;;;;;5012896;28;20022;-57
2022/11/25 02:53:10;;;;;;;27.17;4.18;;;;;;;;;;5013476;28;20093;-58
2022/11/25 02:55:37;;;;;;;33.58;4.38;;;;;;;;;;5012800;28;20040;-58
2022/11/25 02:58:04;;;;;;;26.67;4.63;;;;;;;;;;5012687;28;20026;-56
2022/11/25 03:00:31;;;;;;;31.55;5.43;;;;;;;;;;5012760;28;20026;-54
2022/11/25 03:02:58;;;;;;;26.38;5.35;;;;;;;;;;5012740;28;20022;-59
2022/11/25 03:05:26;;;;;;;23.58;5.15;;;;;;;;;;5012676;28;20030;-55
2022/11/25 03:07:53;;;;;;;26.30;4.70;;;;;;;;;;5012659;28;20530;-57
2022/11/25 03:10:20;;;;;;;27.35;5.15;;;;;;;;;;5013164;28;20387;-57
2022/11/25 03:12:47;;;;;;;27.00;4.60;;;;;;;;;;5013001;28;20025;-55
2022/11/25 03:15:14;;;;;;;31.52;5.15;;;;;;;;;;5013138;28;20022;-56
2022/11/25 03:17:41;;;;;;;20.08;4.35;;;;;;;;;;5013033;28;20097;-56
2022/11/25 03:20:09;;;;;;;29.25;4.85;;;;;;;;;;5012873;28;20053;-57
2022/11/25 03:22:36;;;;;;;26.63;4.82;;;;;;;;;;5012897;28;20032;-56
2022/11/25 03:25:04;;;;;;;21.02;4.50;;;;;;;;;;5011709;28;20026;-58
2022/11/25 03:27:31;;;;;;;20.40;4.28;;;;;;;;;;5012984;28;20480;-57
2022/11/25 03:29:58;;;;;;;19.02;4.68;;;;;;;;;;5012867;28;20110;-58
2022/11/25 03:32:25;;;;;;;21.45;3.78;;;;;;;;;;5012867;28;20022;-57
2022/11/25 03:34:52;;;;;;;27.65;4.38;;;;;;;;;;5011572;28;20030;-56
2022/11/25 03:37:19;;;;;;;18.05;3.95;;;;;;;;;;5011543;28;20247;-58
2022/11/25 03:39:46;;;;;;;19.73;4.88;;;;;;;;;;5012647;28;20026;-56
2022/11/25 03:42:13;;;;;;;25.83;4.38;;;;;;;;;;5012632;28;20022;-57
2022/11/25 03:44:40;;;;;;;25.45;4.15;;;;;;;;;;5012758;28;20101;-53
2022/11/25 03:47:07;;;;;;;22.75;4.13;;;;;;;;;;5012809;28;20018;-58
2022/11/25 03:49:34;;;;;;;22.10;4.07;;;;;;;;;;5012589;28;20069;-57
2022/11/25 03:52:01;;;;;;;23.00;3.55;;;;;;;;;;5012698;28;20034;-58
2022/11/25 03:54:28;;;;;;;23.33;3.78;;;;;;;;;;5012713;28;20484;-57
2022/11/25 03:56:55;;;;;;;21.52;3.83;;;;;;;;;;5012733;28;20026;-56
2022/11/25 03:59:22;;;;;;;20.17;3.67;;;;;;;;;;5012471;28;20496;-58
2022/11/25 04:01:49;;;;;;;26.65;4.13;;;;;;;;;;5012644;28;20030;-57
2022/11/25 04:04:16;;;;;;;22.70;3.63;;;;;;;;;;5015901;28;20068;-55
2022/11/25 04:06:43;;;;;;;28.35;4.20;;;;;;;;;;5016565;28;20421;-56
2022/11/25 04:09:14;;;;;;;23.48;3.95;;;;;;;;;;5016308;28;20488;-55
2022/11/25 04:14:26;;;;;;;26.77;4.50;;;;;;;;;;5016365;28;20546;-58
2022/11/25 04:16:53;;;;;;;18.40;4.68;;;;;;;;;;5016293;28;20033;-56
2022/11/25 04:19:20;;;;;;;26.30;4.30;;;;;;;;;;5016140;28;20034;-57
2022/11/25 04:21:47;;;;;;;21.70;4.47;;;;;;;;;;5016272;28;20416;-58
2022/11/25 04:24:14;;;;;;;22.42;4.80;;;;;;;;;;5016093;28;20026;-57
2022/11/25 04:26:41;;;;;;;23.55;4.25;;;;;;;;;;5016224;28;20022;-58
2022/11/25 04:29:08;;;;;;;24.70;4.18;;;;;;;;;;5016002;28;20030;-55
2022/11/25 04:31:36;;;;;;;16.48;3.58;;;;;;;;;;5016103;28;20022;-56
2022/11/25 04:34:04;;;;;;;17.90;3.83;;;;;;;;;;5015947;28;20033;-58
2022/11/25 04:36:31;;;;;;;23.30;4.32;;;;;;;;;;5016038;28;20388;-55
2022/11/25 04:38:58;;;;;;;16.38;3.63;;;;;;;;;;5015705;28;20049;-57
2022/11/25 04:41:25;;;;;;;18.70;3.70;;;;;;;;;;5015936;28;20033;-58
2022/11/25 04:43:52;;;;;;;21.63;4.28;;;;;;;;;;5015880;28;20021;-56
2022/11/25 04:46:23;;;;;;;21.25;3.78;;;;;;;;;;5015794;28;20054;-58
2022/11/25 04:48:51;;;;;;;16.00;3.75;;;;;;;;;;5015630;28;20026;-57
2022/11/25 04:51:18;;;;;;;21.63;3.70;;;;;;;;;;5015746;28;20104;-54
2022/11/25 04:53:45;;;;;;;14.20;3.85;;;;;;;;;;5015710;28;20536;-56
2022/11/25 04:56:21;;;;;;;18.02;3.67;;;;;;;;;;5015620;28;20018;-58
2022/11/25 05:01:33;;;;;;;23.45;4.03;;;;;;;;;;5015854;28;20502;-57
2022/11/25 05:04:00;;;;;;;19.20;4.30;;;;;;;;;;5015568;28;20025;-54
2022/11/25 05:06:27;;;;;;;17.30;3.75;;;;;;;;;;5015466;28;20481;-56
2022/11/25 05:08:54;;;;;;;20.90;3.75;;;;;;;;;;5015130;28;20042;-57
2022/11/25 05:11:21;;;;;;;18.35;4.40;;;;;;;;;;5015608;28;20030;-56
2022/11/25 05:13:48;;;;;;;16.92;3.90;;;;;;;;;;5014979;28;20029;-56
2022/11/25 05:16:15;;;;;;;19.75;4.15;;;;;;;;;;5015286;28;20397;-57
2022/11/25 05:18:42;;;;;;;17.13;4.40;;;;;;;;;;5014965;28;20034;-54
2022/11/25 05:21:09;;;;;;;25.02;4.78;;;;;;;;;;5015215;28;20048;-55
2022/11/25 05:23:36;;;;;;;17.38;3.92;;;;;;;;;;5015014;28;20114;-52
2022/11/25 05:26:03;;;;;;;19.13;4.55;;;;;;;;;;5015073;28;20045;-53
2022/11/25 05:28:31;;;;;;;18.42;4.05;;;;;;;;;;5014938;28;20447;-57
2022/11/25 05:30:58;;;;;;;20.80;4.43;;;;;;;;;;5014998;28;20032;-57
2022/11/25 05:33:25;;;;;;;16.05;3.72;;;;;;;;;;5014921;28;20397;-56
2022/11/25 05:35:56;;;;;;;15.57;4.03;;;;;;;;;;5014846;28;20018;-57
2022/11/25 05:38:23;;;;;;;17.08;4.38;;;;;;;;;;5014712;28;20072;-56
2022/11/25 05:40:50;;;;;;;24.40;4.60;;;;;;;;;;5014743;28;20076;-57
2022/11/25 05:43:18;;;;;;;26.75;4.72;;;;;;;;;;5014623;28;20050;-57
2022/11/25 05:45:45;;;;;;;23.83;4.47;;;;;;;;;;5014734;28;20502;-56
2022/11/25 05:48:12;;;;;;;20.77;4.65;;;;;;;;;;5014485;28;20361;-56
2022/11/25 05:50:39;;;;;;;20.05;4.40;;;;;;;;;;5014527;28;20029;-56
2022/11/25 05:53:06;;;;;;;20.13;3.90;;;;;;;;;;5014592;28;20488;-56
2022/11/25 05:55:33;;;;;;;21.25;4.15;;;;;;;;;;5014549;28;20508;-56
2022/11/25 05:58:01;;;;;;;20.85;4.25;;;;;;;;;;5014371;28;20033;-56
2022/11/25 06:00:28;;;;;;;17.10;4.55;;;;;;;;;;5014358;28;20064;-56
2022/11/25 06:02:55;;;;;;;23.92;4.68;;;;;;;;;;5022775;28;20044;-57
2022/11/25 06:05:23;;;;;;;21.42;5.05;;;;;;;;;;5034132;28;20032;-58
2022/11/25 06:07:49;;;;;;;21.80;5.30;;;;;;;;;;5033821;28;20040;-58
2022/11/25 06:10:17;;;;;;;15.60;4.30;;;;;;;;;;5033921;28;20399;-57
2022/11/25 06:12:44;;;;;;;23.10;5.25;;;;;;;;;;5033977;28;20032;-58
2022/11/25 06:15:11;;;;;;;22.48;5.05;;;;;;;;;;5032287;28;20387;-58
2022/11/25 06:17:38;;;;;;;22.92;4.80;;;;;;;;;;5034020;28;20068;-58
2022/11/25 06:20:06;;;;;;;18.27;4.18;;;;;;;;;;5033588;28;20061;-57
2022/11/25 06:22:33;;;;;;;25.35;4.78;;;;;;;;;;5033739;28;20096;-56
2022/11/25 06:25:00;;;;;;;20.92;3.80;;;;;;;;;;5032871;28;20033;-57
2022/11/25 06:27:27;;;;;;;20.67;4.68;;;;;;;;;;5033445;28;20080;-56
2022/11/25 06:29:54;;;;;;;21.73;4.10;;;;;;;;;;5033601;28;20035;-56
2022/11/25 06:32:21;;;;;;;16.25;4.63;;;;;;;;;;5033503;28;20526;-57
2022/11/25 06:34:48;;;;;;;20.50;4.22;;;;;;;;;;5033505;28;20025;-56
2022/11/25 06:37:15;;;;;;;21.60;4.35;;;;;;;;;;5033512;28;20075;-55
2022/11/25 06:39:41;;;;;;;20.10;4.57;;;;;;;;;;4999705;28;20424;-58
2022/11/25 06:42:08;;;;;;;19.98;4.50;;;;;;;;;;4993947;28;20023;-57
2022/11/25 06:44:35;;;;;;;21.25;4.65;;;;;;;;;;4994006;28;20058;-57
2022/11/25 06:47:02;;;;;;;18.80;4.20;;;;;;;;;;4992550;28;20018;-58
2022/11/25 06:49:29;;;;;;;23.40;4.82;;;;;;;;;;4992502;28;20396;-57
2022/11/25 06:51:56;;;;;;;24.02;4.75;;;;;;;;;;4993877;28;20029;-57
2022/11/25 06:54:23;;;;;;;21.13;4.50;;;;;;;;;;4993841;28;20125;-57
2022/11/25 06:56:52;;;;;;;18.85;3.80;;;;;;;;;;4993816;28;20065;-58
2022/11/25 06:59:20;;;;;;;17.10;3.40;;;;;;;;;;4993697;28;20096;-56
2022/11/25 07:01:47;;;;;;;19.33;4.07;;;;;;;;;;4993810;28;20019;-57
2022/11/25 07:04:14;;;;;;;19.10;4.45;;;;;;;;;;4993653;28;20027;-56
2022/11/25 07:06:41;;;;;;;22.20;5.13;;;;;;;;;;4993638;28;20046;-56
2022/11/25 07:09:08;;;;;;;18.30;4.50;;;;;;;;;;4993421;28;20050;-57
2022/11/25 07:11:36;;;;;;;22.13;5.00;;;;;;;;;;4993535;28;20052;-56
2022/11/25 07:14:05;;;;;;;18.25;3.85;;;;;;;;;;4993588;28;20018;-57
2022/11/25 07:16:32;;;;;;;17.83;4.93;;;;;;;;;;4993529;28;20032;-56
2022/11/25 07:19:03;;;;;;;17.20;4.18;;;;;;;;;;4993352;28;20039;-56
2022/11/25 07:21:31;;;;;;;22.05;4.97;;;;;;;;;;4992128;28;20030;-56
2022/11/25 07:23:58;;;;;;;19.38;4.75;;;;;;;;;;4993390;28;20026;-57
2022/11/25 07:26:27;;;;;;;23.65;4.40;;;;;;;;;;4993476;28;20026;-56
2022/11/25 07:28:55;;;;;;;21.08;4.60;;;;;;;;;;4993215;28;20045;-55
2022/11/25 07:31:22;;;;;;;17.33;4.15;;;;;;;;;;4993319;28;20030;-56
2022/11/25 07:33:52;;;;;;;15.57;4.13;;;;;;;;;;4993259;28;20044;-56
2022/11/25 07:36:19;;;;;;;15.10;4.38;;;;;;;;;;4993253;28;20019;-57
2022/11/25 07:38:46;;;;;;;19.65;4.18;;;;;;;;;;4993055;28;20035;-56
2022/11/25 07:41:15;;;;;;;21.70;4.88;;;;;;;;;;4993122;28;20026;-56
2022/11/25 07:43:45;;;;;;;19.88;4.60;;;;;;;;;;4993259;28;20030;-56
2022/11/25 07:46:16;;;;;;;20.33;4.30;;;;;;;;;;4993239;28;20073;-55
2022/11/25 07:48:44;;;;;;;25.27;4.57;;;;;;;;;;4993085;28;20029;-56
2022/11/25 07:51:14;;;;;;;20.30;4.50;;;;;;;;;;4993177;28;20030;-55
2022/11/25 07:53:41;;;;;;;21.25;4.30;;;;;;;;;;4993120;28;20040;-56
2022/11/25 07:56:09;;;;;;;25.92;4.63;;;;;;;;;;5007244;28;20391;-58
2022/11/25 07:58:36;;;;;;;29.00;4.88;;;;;;;;;;5012412;28;20609;-58
2022/11/25 08:01:04;;;;;;;16.27;4.45;;;;;;;;;;5012591;28;20026;-56
2022/11/25 08:03:34;;;;;;;21.60;4.57;;;;;;;;;;5012583;28;20088;-58
2022/11/25 08:06:04;;;;;;;19.60;4.80;;;;;;;;;;5012526;28;20029;-58
2022/11/25 08:08:31;;;;;;;19.50;4.65;;;;;;;;;;5012323;28;20057;-58
2022/11/25 08:10:58;;;;;;;24.20;5.28;;;;;;;;;;5012524;28;20033;-55
2022/11/25 08:13:25;;;;;;;17.92;4.13;;;;;;;;;;5012586;28;20527;-57
2022/11/25 08:15:52;;;;;;;18.50;3.70;;;;;;;;;;5012539;28;20060;-57
2022/11/25 08:18:19;;;;;;;23.63;5.45;;;;;;;;;;5012347;28;20057;-53
2022/11/25 08:20:46;;;;;;;19.55;4.60;;;;;;;;;;5012414;28;20026;-58
2022/11/25 08:23:13;;;;;;;17.63;4.88;;;;;;;;;;5012436;28;20480;-56
2022/11/25 08:25:43;;;;;;;22.17;5.13;;;;;;;;;;5012436;28;20030;-57
2022/11/25 08:28:10;;;;;;;28.95;5.38;;;;;;;;;;5012247;28;20072;-56
2022/11/25 08:30:37;;;;;;;27.50;5.53;;;;;;;;;;5012576;28;20056;-57
2022/11/25 08:33:06;;;;;;;30.42;5.05;;;;;;;;;;5012300;28;20129;-57
2022/11/25 08:35:36;;;;;;;28.80;5.90;;;;;;;;;;5012305;28;20022;-58
2022/11/25 08:38:05;;;;;;;19.15;4.90;;;;;;;;;;5012189;28;20376;-57
2022/11/25 08:40:33;;;;;;;34.20;6.30;;;;;;;;;;5012347;28;20022;-57
2022/11/25 08:43:00;;;;;;;26.98;5.53;;;;;;;;;;5012196;28;20052;-55
2022/11/25 08:45:27;;;;;;;25.15;5.35;;;;;;;;;;5012284;28;20018;-57
2022/11/25 08:47:54;;;;;;;25.88;5.28;;;;;;;;;;5012551;28;20412;-55
2022/11/25 08:50:23;;;;;;;20.80;5.00;;;;;;;;;;5015200;28;20108;-55
2022/11/25 08:52:50;;;;;;;17.35;4.30;;;;;;;;;;5015658;28;20030;-54
2022/11/25 08:55:17;;;;;;;23.92;4.53;;;;;;;;;;5015629;28;20029;-58
2022/11/25 08:57:44;;;;;;;26.02;5.35;;;;;;;;;;5015673;28;20076;-57
2022/11/25 09:00:11;;;;;;;21.40;4.75;;;;;;;;;;5015421;28;20114;-57
2022/11/25 09:02:39;;;;;;;27.13;5.18;;;;;;;;;;5015517;28;20018;-58
2022/11/25 09:05:06;;;;;;;20.88;4.45;;;;;;;;;;5015494;28;20042;-56
2022/11/25 09:07:32;;;;;;;22.35;4.82;;;;;;;;;;5015363;28;20033;-56
2022/11/25 09:09:59;;;;;;;20.02;4.72;;;;;;;;;;5015155;28;20052;-53
2022/11/25 09:12:26;;;;;;;27.58;4.78;;;;;;;;;;5015377;28;20026;-56
2022/11/25 09:14:53;;;;;;;25.10;5.35;;;;;;;;;;5015296;28;20034;-55
2022/11/25 09:17:21;;;;;;;21.10;4.80;;;;;;;;;;5015226;28;20030;-58
2022/11/25 09:19:48;;;;;;;24.17;5.10;;;;;;;;;;5015042;28;20038;-53
2022/11/25 09:22:15;;;;;;;20.50;4.70;;;;;;;;;;5013955;28;20029;-56
2022/11/25 09:24:44;;;;;;;19.10;4.15;;;;;;;;;;5015024;28;20104;-55
2022/11/25 09:27:11;;;;;;;20.27;4.68;;;;;;;;;;5015045;28;20034;-53
2022/11/25 09:29:38;;;;;;;25.67;5.43;;;;;;;;;;5014985;28;20084;-53
2022/11/25 09:32:05;;;;;;;24.33;5.03;;;;;;;;;;5015038;28;20029;-56
2022/11/25 09:34:32;;;;;;;20.10;4.75;;;;;;;;;;5014899;28;20155;-56
2022/11/25 09:36:59;;;;;;;24.83;4.57;;;;;;;;;;5014976;28;20445;-56
2022/11/25 09:39:28;;;;;;;29.85;5.95;;;;;;;;;;5014730;28;20105;-54
2022/11/25 09:47:47;;;;;;;34.08;5.93;;;;;;;;;;5014991;28;20055;-56
2022/11/25 09:50:14;;;;;;;20.88;5.60;;;;;;;;;;5014599;28;20037;-56
2022/11/25 09:53:02;;;;;;;34.80;5.43;;;;;;;;;;5014524;28;20468;-57
2022/11/25 09:55:33;;;;;;;31.90;5.80;;;;;;;;;;5013609;28;20029;-56
2022/11/25 09:58:16;;;;;;;31.30;5.28;;;;;;;;;;5013972;28;20025;-58
2022/11/25 10:00:47;;;;;;;22.17;5.40;;;;;;;;;;5010257;28;20034;-58
2022/11/25 10:03:17;;;;;;;40.47;5.75;;;;;;;;;;5013721;28;20506;-56
2022/11/25 10:05:57;;;;;;;43.90;6.68;;;;;;;;;;5010409;28;20034;-57
2022/11/25 10:08:27;;;;;;;45.78;6.05;;;;;;;;;;5010438;28;20091;-55
2022/11/25 10:11:10;;;;;;;35.35;5.68;;;;;;;;;;5013909;28;20484;-57
2022/11/25 10:13:36;;;;;;;;;;;;;;;;;;5014193;28;20073;-57
2022/11/25 10:16:05;;;;;;;29.52;6.03;;;;;;;;;;5012778;28;19909;-57
2022/11/25 10:18:38;;;;;;;31.05;5.45;;;;;;;;;;5013530;28;20034;-57
2022/11/25 10:21:05;;;;;;;27.67;5.32;;;;;;;;;;5013369;28;20032;-57
2022/11/25 10:23:35;;;;;;;34.47;5.32;;;;;;;;;;5013065;28;20044;-56
2022/11/25 10:26:22;;;;;;;27.63;4.80;;;;;;;;;;5013091;28;20053;-57
2022/11/25 10:29:09;;;;;;;24.95;4.80;;;;;;;;;;5003712;28;20037;-57
2022/11/25 10:31:36;;;;;;;32.40;5.18;;;;;;;;;;4999893;28;20038;-58
2022/11/25 10:34:11;;;;;;;29.17;5.20;;;;;;;;;;5011971;28;20030;-58
2022/11/25 10:36:39;;;;;;;31.02;5.03;;;;;;;;;;5010977;28;20033;-58
2022/11/25 10:39:14;;;;;;;25.10;5.22;;;;;;;;;;5012962;28;20121;-57
2022/11/25 10:41:53;;;;;;;27.08;4.70;;;;;;;;;;5013033;28;20454;-58
2022/11/25 10:44:26;;;;;;;31.88;5.60;;;;;;;;;;5013085;28;20033;-58
2022/11/25 10:47:11;;;;;;;32.45;5.07;;;;;;;;;;5012996;28;20022;-56
2022/11/25 10:49:56;;;;;;;26.65;5.30;;;;;;;;;;5012827;28;20067;-58
2022/11/25 10:52:23;;;;;;;26.27;5.43;;;;;;;;;;5013117;28;20061;-58
2022/11/25 10:55:16;;;;;;;27.23;5.07;;;;;;;;;;5012717;28;20109;-56
2022/11/25 10:57:43;;;;;;;30.70;4.90;;;;;;;;;;5011639;28;20033;-57
2022/11/25 11:00:33;;;;;;;26.88;5.20;;;;;;;;;;5012340;28;20029;-57
2022/11/25 11:03:01;;;;;;;30.10;5.38;;;;;;;;;;5012266;28;20034;-56
2022/11/25 11:05:29;;;;;;;37.45;5.93;;;;;;;;;;5012363;28;20026;-56
2022/11/25 11:08:15;;;;;;;30.85;5.65;;;;;;;;;;5012014;28;20025;-57
2022/11/25 11:10:42;;;;;;;25.27;5.10;;;;;;;;;;5011617;28;20033;-58
2022/11/25 11:13:18;;;;;;;31.55;5.50;;;;;;;;;;5009101;28;21554;-57
2022/11/25 11:15:46;;;;;;;29.95;5.20;;;;;;;;;;5011575;28;20030;-56
2022/11/25 11:18:30;;;;;;;25.60;5.00;;;;;;;;;;5011606;28;20045;-55
2022/11/25 11:20:58;;;;;;;31.85;5.13;;;;;;;;;;5011362;28;20488;-57
2022/11/25 11:23:26;;;;;;;50.17;6.95;;;;;;;;;;5011356;28;20022;-57
2022/11/25 11:25:58;;;;;;;62.58;7.60;;;;;;;;;;5012007;28;20430;-57
2022/11/25 11:28:33;;;;;;;50.03;7.38;;;;;;;;;;5011956;28;20022;-56
2022/11/25 11:31:02;;;;;;;48.42;6.30;;;;;;;;;;5011623;28;20156;-49
2022/11/25 11:33:47;;;;;;;81.82;8.45;;;;;;;;;;5010817;28;20065;-51
2022/11/25 11:36:34;;;;;;;153.57;12.13;;;;;;;;;;5011462;28;20033;-48
2022/11/25 11:39:19;;;;;;;94.55;8.85;;;;;;;;;;5011280;28;20061;-47
2022/11/25 11:41:46;;;;;;;61.85;7.60;;;;;;;;;;5011826;28;20080;-45
2022/11/25 11:44:31;;;;;;;53.28;7.82;;;;;;;;;;5011498;28;20022;-47
2022/11/25 11:47:04;;;;;;;33.03;5.55;;;;;;;;;;4992816;28;20026;-48
2022/11/25 11:49:30;;;;;;;57.65;7.22;;;;;;;;;;4992790;28;20337;-46
2022/11/25 11:52:36;;;;;;;68.93;8.35;;;;;;;;;;4992210;28;20038;-46
2022/11/25 11:55:12;;;;;;;53.42;7.22;;;;;;;;;;4951849;29;20032;-46
2022/11/25 11:57:48;;;;;;;47.72;6.45;;;;;;;;;;4951728;29;20545;-45
2022/11/25 12:00:25;;;;;;;42.22;6.10;;;;;;;;;;4976306;28;20074;-44
2022/11/25 12:03:12;;;;;;;40.00;6.47;;;;;;;;;;4996582;28;20044;-49
2022/11/25 12:05:39;;;;;;;42.65;5.90;;;;;;;;;;5010792;28;20030;-48
2022/11/25 12:08:32;;;;;;;46.97;5.95;;;;;;;;;;5011859;28;20506;-45
2022/11/25 12:11:03;;;;;;;42.90;5.97;;;;;;;;;;5011725;28;20034;-52
2022/11/25 12:13:48;;;;;;;34.85;5.70;;;;;;;;;;5012276;28;20037;-46
2022/11/25 12:16:21;;;;;;;41.03;5.60;;;;;;;;;;5011790;28;20029;-46
2022/11/25 12:18:48;;;;;;;32.63;5.10;;;;;;;;;;5011860;28;20033;-46
2022/11/25 12:21:33;;;;;;;36.25;5.38;;;;;;;;;;5012063;28;20057;-45
2022/11/25 12:24:03;;;;;;;29.92;5.13;;;;;;;;;;5013191;28;20052;-47
2022/11/25 12:26:48;;;;;;;39.75;5.95;;;;;;;;;;5015704;28;20029;-46
2022/11/25 12:29:33;;;;;;;41.75;5.53;;;;;;;;;;5015343;28;20038;-46
2022/11/25 12:32:19;;;;;;;38.10;6.63;;;;;;;;;;5015374;28;20431;-44
2022/11/25 12:35:06;;;;;;;34.45;5.88;;;;;;;;;;5013950;28;20412;-55
2022/11/25 12:37:38;;;;;;;34.10;4.88;;;;;;;;;;5015194;28;20534;-47
2022/11/25 12:40:14;;;;;;;40.92;6.15;;;;;;;;;;5015336;28;20490;-44
2022/11/25 12:42:42;;;;;;;44.72;5.40;;;;;;;;;;5015062;28;20105;-44
2022/11/25 12:45:17;;;;;;;41.65;5.50;;;;;;;;;;5014605;28;20037;-50
2022/11/25 12:47:45;;;;;;;36.78;5.60;;;;;;;;;;5015011;28;20481;-45
2022/11/25 12:50:17;;;;;;;38.83;6.03;;;;;;;;;;5014773;28;20120;-50
2022/11/25 12:52:59;;;;;;;33.38;5.40;;;;;;;;;;5014287;28;20065;-48
2022/11/25 12:55:27;;;;;;;46.00;5.60;;;;;;;;;;5015289;28;20425;-51
2022/11/25 12:58:13;;;;;;;50.13;6.63;;;;;;;;;;5014311;28;20036;-47
2022/11/25 13:01:00;;;;;;;42.38;5.93;;;;;;;;;;5014658;28;20042;-46
2022/11/25 13:03:30;;;;;;;52.78;6.32;;;;;;;;;;5014875;28;20034;-47
2022/11/25 13:06:06;;;;;;;65.10;8.10;;;;;;;;;;5014690;28;20476;-44
2022/11/25 13:08:51;;;;;;;53.03;6.18;;;;;;;;;;5013295;28;20045;-49
2022/11/25 13:11:18;;;;;;;44.45;7.47;;;;;;;;;;5014691;28;20026;-46
2022/11/25 13:14:00;;;;;;;36.47;5.78;;;;;;;;;;5014151;28;20038;-50
2022/11/25 13:16:28;;;;;;;49.45;6.45;;;;;;;;;;5014913;28;20018;-47
2022/11/25 13:18:56;;;;;;;48.20;5.47;;;;;;;;;;5014500;28;20392;-46
2022/11/25 13:21:23;;;;;;;57.42;7.07;;;;;;;;;;5012733;28;20030;-44
2022/11/25 13:23:52;;;;;;;51.75;5.93;;;;;;;;;;5014792;28;20061;-45
2022/11/25 13:26:32;;;;;;;45.92;5.97;;;;;;;;;;5014341;28;20108;-46
2022/11/25 13:29:19;;;;;;;41.78;5.35;;;;;;;;;;5014090;28;20814;-44
2022/11/25 13:31:58;;;;;;;68.07;6.93;;;;;;;;;;5013428;28;20091;-49
2022/11/25 13:34:30;;;;;;;53.92;6.60;;;;;;;;;;5014040;28;20068;-52
2022/11/25 13:36:58;;;;;;;62.03;8.18;;;;;;;;;;5012997;28;20041;-49
2022/11/25 13:39:32;;;;;;;60.40;7.40;;;;;;;;;;5014080;28;20631;-48
2022/11/25 13:42:34;;;;;;;46.80;6.47;;;;;;;;;;5014486;28;20038;-52
2022/11/25 13:45:01;;;;;;;54.97;7.23;;;;;;;;;;5011935;28;20030;-48
2022/11/25 13:47:28;;;;;;;56.08;7.75;;;;;;;;;;5013303;28;20491;-48
2022/11/25 13:50:00;;;;;;;57.75;7.82;;;;;;;;;;5014121;28;20072;-51
2022/11/25 13:52:33;;;;;;;55.42;7.43;;;;;;;;;;5013890;28;20030;-52
2022/11/25 13:55:02;;;;;;;77.65;7.90;;;;;;;;;;5014007;28;20030;-52
2022/11/25 13:57:29;;;;;;;57.22;7.20;;;;;;;;;;5013445;28;20045;-50
2022/11/25 13:59:58;;;;;;;52.22;7.28;;;;;;;;;;5013963;28;20048;-50
2022/11/25 14:02:29;;;;;;;43.85;6.25;;;;;;;;;;5013531;28;20033;-52
2022/11/25 14:05:12;;;;;;;62.05;8.52;;;;;;;;;;5013783;28;20061;-53
2022/11/25 14:07:57;;;;;;;72.57;9.20;;;;;;;;;;5013632;28;20512;-48
2022/11/25 14:10:25;;;;;;;60.22;8.27;;;;;;;;;;5039799;22;20041;-61
2022/11/25 14:12:54;;;;;;;64.85;7.90;;;;;;;;;;5030893;28;20068;-60
2022/11/25 14:15:31;;;;;;;47.90;6.15;;;;;;;;;;5033241;28;20056;-60
2022/11/25 14:18:07;;;;;;;41.38;6.32;;;;;;;;;;5033140;28;20494;-60
2022/11/25 14:20:39;;;;;;;58.90;6.85;;;;;;;;;;5032975;28;20025;-60
2022/11/25 14:23:19;;;;;;;44.17;5.88;;;;;;;;;;5032892;28;20027;-61
2022/11/25 14:25:50;;;;;;;41.97;6.60;;;;;;;;;;5033229;28;20474;-62
2022/11/25 14:28:30;;;;;;;66.13;7.05;;;;;;;;;;5032949;28;20029;-62
2022/11/25 14:30:59;;;;;;;51.55;8.10;;;;;;;;;;5032780;28;20469;-62
2022/11/25 14:33:33;;;;;;;62.92;7.93;;;;;;;;;;5033141;28;20382;-61
2022/11/25 14:36:07;;;;;;;68.43;8.63;;;;;;;;;;5032528;28;20386;-62
2022/11/25 14:38:54;;;;;;;53.55;7.60;;;;;;;;;;5032697;28;20030;-63
2022/11/25 14:41:26;;;;;;;53.83;8.50;;;;;;;;;;5032710;28;20555;-62
2022/11/25 14:43:52;;;;;;;;;;;;;;;;;;5032858;28;20075;-62
2022/11/25 14:46:21;;;;;;;37.20;5.35;;;;;;;;;;5032321;28;19913;-61
2022/11/25 14:48:55;;;;;;;41.33;5.20;;;;;;;;;;5032599;28;20033;-63
2022/11/25 14:51:22;;;;;;;47.53;6.45;;;;;;;;;;5032225;28;20026;-62
2022/11/25 14:53:50;;;;;;;48.60;6.47;;;;;;;;;;5032615;28;20096;-59
2022/11/25 14:56:27;;;;;;;80.97;8.75;;;;;;;;;;5032692;28;20025;-60
2022/11/25 14:58:55;;;;;;;69.35;9.63;;;;;;;;;;5031870;28;20040;-60
2022/11/25 15:01:26;;;;;;;88.90;10.68;;;;;;;;;;5032635;28;20393;-62
2022/11/25 15:04:05;;;;;;;118.60;13.48;;;;;;;;;;5032345;28;20087;-59
2022/11/25 15:06:37;;;;;;;85.55;11.18;;;;;;;;;;5032319;28;20425;-62